Chaves, Brazil
Current Conditions -  °F | °C
As of 11:00 PM on Wednesday 22 Oct 2014 (Local Time) from SBMQ Reporting Station
Broken Clouds Broken Clouds  
Wind Chill: 82°   Ceiling: 1500
Heat Index: 89°   Visibility: 6mi
Dew Point: 75°   Wind: 14mph
Humidity: 79%   Direction: 60°ENE
Pressure: 29.94"   Gusts: NA
Location:  0.2°S, 49.92°W
Report Text: SBMQ 230200Z 06012KT 9999 BKN015 28/24 Q1014
Loading
Personal Weather Stations






























Interactive Weather Map
Tropical Storm Tracking
New forecast layout! Learn more

10-Day Weather Forecast

Advertisements
Track Severe Weather on mobile